createdAt,value
2018-03-22T00:01:32.339Z,102000.77
2018-03-22T00:04:00.506Z,101998.20
2018-03-22T00:06:28.645Z,101991.80
2018-03-22T00:08:56.780Z,101985.31
2018-03-22T00:11:24.919Z,101989.33
2018-03-22T00:13:53.103Z,101988.77
2018-03-22T00:16:21.316Z,101976.14
2018-03-22T00:18:49.442Z,101972.27
2018-03-22T00:21:17.581Z,101972.75
2018-03-22T00:23:45.730Z,101960.83
2018-03-22T00:26:13.893Z,101950.81
2018-03-22T00:28:42.023Z,101948.81
2018-03-22T00:31:10.172Z,101946.88
2018-03-22T00:33:38.306Z,101941.82
2018-03-22T00:36:06.532Z,101941.72
2018-03-22T00:38:34.694Z,101939.60
2018-03-22T00:41:02.830Z,101938.84
2018-03-22T00:43:30.957Z,101933.97
2018-03-22T00:45:59.077Z,101934.68
2018-03-22T00:48:27.348Z,101919.47
2018-03-22T00:50:55.500Z,101920.01
2018-03-22T00:53:23.644Z,101910.94
2018-03-22T00:55:51.771Z,101900.63
2018-03-22T00:58:19.907Z,101895.59
2018-03-22T01:00:48.064Z,101892.56
2018-03-22T01:03:16.193Z,101886.14
2018-03-22T01:05:44.322Z,101889.37
2018-03-22T01:08:12.472Z,101882.97
2018-03-22T01:10:40.633Z,101877.29
2018-03-22T01:13:08.788Z,101865.98
2018-03-22T01:15:36.903Z,101859.68
2018-03-22T01:18:05.058Z,101851.66
2018-03-22T01:20:33.193Z,101847.13
2018-03-22T01:23:01.314Z,101838.50
2018-03-22T01:25:29.445Z,101835.94
2018-03-22T01:27:57.626Z,101833.48
2018-03-22T01:30:36.576Z,101828.30
2018-03-22T01:33:04.723Z,101823.48
2018-03-22T01:35:32.856Z,101819.58
2018-03-22T01:38:00.992Z,101816.27
2018-03-22T01:40:29.123Z,101810.72
2018-03-22T01:42:57.267Z,101807.14
2018-03-22T01:45:25.391Z,101793.25
2018-03-22T01:47:53.521Z,101788.91
2018-03-22T01:50:21.718Z,101787.74
2018-03-22T01:53:01.563Z,101773.43
2018-03-22T01:55:29.735Z,101775.89
2018-03-22T01:57:57.834Z,101775.05
2018-03-22T02:00:25.984Z,101768.83
2018-03-22T02:02:54.173Z,101766.59
2018-03-22T02:05:22.359Z,101759.59
2018-03-22T02:07:50.491Z,101747.41
2018-03-22T02:10:18.636Z,101742.59
2018-03-22T02:12:46.793Z,101742.12
2018-03-22T02:15:14.916Z,101749.18
2018-03-22T02:17:43.078Z,101742.86
2018-03-22T02:20:11.222Z,101744.78
2018-03-22T02:22:39.405Z,101748.23
2018-03-22T02:25:07.567Z,101741.69
2018-03-22T02:27:35.730Z,101732.70
2018-03-22T02:30:03.880Z,101748.27
2018-03-22T02:32:32.009Z,101736.95
2018-03-22T02:35:00.129Z,101738.80
2018-03-22T02:37:28.308Z,101733.21
2018-03-22T02:39:56.436Z,101724.52
2018-03-22T02:42:24.554Z,101717.46
2018-03-22T02:44:52.705Z,101705.80
2018-03-22T02:47:20.838Z,101702.84
2018-03-22T02:49:48.980Z,101690.21
2018-03-22T02:52:17.111Z,101692.14
2018-03-22T02:54:45.240Z,101684.53
2018-03-22T02:57:13.384Z,101687.70
2018-03-22T02:59:41.507Z,101690.89
2018-03-22T03:02:09.634Z,101681.61
2018-03-22T03:04:37.776Z,101674.52
2018-03-22T03:07:05.931Z,101674.27
2018-03-22T03:09:34.056Z,101669.34
2018-03-22T03:12:02.198Z,101663.69
2018-03-22T03:14:30.318Z,101655.86
2018-03-22T03:16:58.494Z,101649.61
2018-03-22T03:19:26.674Z,101650.59
2018-03-22T03:21:54.816Z,101653.27
2018-03-22T03:24:22.949Z,101639.66
2018-03-22T03:26:51.077Z,101630.09
2018-03-22T03:29:19.201Z,101625.91
2018-03-22T03:31:47.365Z,101622.44
2018-03-22T03:34:15.628Z,101613.77
2018-03-22T03:36:43.751Z,101612.98
2018-03-22T03:39:11.892Z,101612.65
2018-03-22T03:41:40.103Z,101603.48
2018-03-22T03:44:08.250Z,101609.59
2018-03-22T03:46:36.388Z,101600.33
2018-03-22T03:49:04.530Z,101596.15
2018-03-22T03:51:32.674Z,101590.22
2018-03-22T03:54:00.816Z,101593.07
2018-03-22T03:56:28.949Z,101590.41
2018-03-22T03:58:57.106Z,101581.80
2018-03-22T04:01:25.252Z,101580.98
2018-03-22T04:03:53.378Z,101579.75
2018-03-22T04:06:21.513Z,101579.39
2018-03-22T04:08:49.672Z,101566.16
2018-03-22T04:11:17.835Z,101559.14
2018-03-22T04:13:45.992Z,101561.82
2018-03-22T04:16:14.123Z,101549.41
2018-03-22T04:18:42.262Z,101538.92
2018-03-22T04:21:10.398Z,101536.23
2018-03-22T04:23:38.543Z,101533.98
2018-03-22T04:26:06.674Z,101533.08
2018-03-22T04:28:34.816Z,101532.83
2018-03-22T04:31:02.958Z,101534.41
2018-03-22T04:33:31.596Z,101536.98
2018-03-22T04:36:00.511Z,101534.23
2018-03-22T04:38:28.666Z,101536.08
2018-03-22T04:40:56.823Z,101533.41
2018-03-22T04:43:24.938Z,101521.06
2018-03-22T04:45:59.447Z,101520.64
2018-03-22T04:48:27.559Z,101519.28
2018-03-22T04:50:55.702Z,101511.80
2018-03-22T04:53:24.132Z,101509.78
2018-03-22T04:55:52.307Z,101503.14
2018-03-22T04:58:20.465Z,101490.66
2018-03-22T05:00:48.637Z,101488.26
2018-03-22T05:03:16.882Z,101492.50
2018-03-22T05:05:45.075Z,101484.22
2018-03-22T05:08:13.427Z,101472.54
2018-03-22T05:10:41.701Z,101465.23
2018-03-22T05:13:10.149Z,101457.44
2018-03-22T05:15:38.289Z,101459.23
2018-03-22T05:18:06.415Z,101463.36
2018-03-22T05:20:34.604Z,101452.38
2018-03-22T05:23:02.736Z,101445.77
2018-03-22T05:25:30.878Z,101452.75
2018-03-22T05:27:59.006Z,101458.41
2018-03-22T05:30:27.227Z,101453.51
2018-03-22T05:32:55.360Z,101444.56
2018-03-22T05:35:23.507Z,101451.45
2018-03-22T05:37:51.650Z,101447.33
2018-03-22T05:40:19.806Z,101445.77
2018-03-22T05:42:47.952Z,101447.09
2018-03-22T05:45:16.089Z,101447.25
2018-03-22T05:47:44.250Z,101451.67
2018-03-22T05:50:12.387Z,101450.83
2018-03-22T05:52:40.534Z,101453.31
2018-03-22T05:55:09.666Z,101442.78
2018-03-22T05:57:37.803Z,101449.97
2018-03-22T06:00:05.927Z,101443.39
2018-03-22T06:02:34.067Z,101439.27
2018-03-22T06:05:02.193Z,101440.10
2018-03-22T06:07:30.396Z,101433.06
2018-03-22T06:09:58.548Z,101429.05
2018-03-22T06:12:26.676Z,101429.22
2018-03-22T06:14:54.834Z,101421.38
2018-03-22T06:17:22.972Z,101425.55
2018-03-22T06:19:51.119Z,101416.74
2018-03-22T06:22:19.288Z,101413.81
2018-03-22T06:24:47.420Z,101407.25
2018-03-22T06:27:15.574Z,101416.08
2018-03-22T06:29:43.723Z,101418.66
2018-03-22T06:32:11.834Z,101419.57
2018-03-22T06:34:39.995Z,101418.46
2018-03-22T06:37:08.125Z,101413.20
2018-03-22T06:39:36.295Z,101413.94
2018-03-22T06:42:04.444Z,101397.91
2018-03-22T06:44:32.580Z,101389.45
2018-03-22T06:47:00.707Z,101398.25
2018-03-22T06:49:28.874Z,101384.30
2018-03-22T06:51:57.031Z,101384.46
2018-03-22T06:54:25.173Z,101376.72
2018-03-22T06:56:53.446Z,101370.80
2018-03-22T06:59:21.607Z,101366.55
2018-03-22T07:01:49.731Z,101361.33
2018-03-22T07:04:17.875Z,101360.31
2018-03-22T07:06:46.057Z,101356.32
2018-03-22T07:09:14.189Z,101352.96
2018-03-22T07:11:42.345Z,101356.47
2018-03-22T07:14:10.522Z,101352.48
2018-03-22T07:16:38.645Z,101342.97
2018-03-22T07:19:06.776Z,101342.72
2018-03-22T07:21:34.939Z,101347.75
2018-03-22T07:24:03.111Z,101334.81
2018-03-22T07:26:31.275Z,101341.87
2018-03-22T07:28:59.490Z,101334.48
2018-03-22T07:31:27.659Z,101328.50
2018-03-22T07:33:55.798Z,101335.37
2018-03-22T07:36:24.070Z,101336.80
2018-03-22T07:38:52.195Z,101334.71
2018-03-22T07:41:20.359Z,101328.44
2018-03-22T07:43:48.498Z,101326.77
2018-03-22T07:46:16.647Z,101328.59
2018-03-22T07:48:44.790Z,101320.22
2018-03-22T07:51:12.924Z,101324.84
2018-03-22T07:53:41.164Z,101324.09
2018-03-22T07:56:09.335Z,101322.59
2018-03-22T07:58:37.517Z,101326.36
2018-03-22T08:01:05.638Z,101316.00
2018-03-22T08:03:33.821Z,101311.28
2018-03-22T08:06:01.959Z,101310.61
2018-03-22T08:08:30.131Z,101307.38
2018-03-22T08:10:58.274Z,101310.46
2018-03-22T08:13:26.431Z,101301.86
2018-03-22T08:15:54.591Z,101299.59
2018-03-22T08:18:22.726Z,101297.17
2018-03-22T08:20:51.809Z,101293.15
2018-03-22T08:23:20.271Z,101290.89
2018-03-22T08:25:48.447Z,101287.98
2018-03-22T08:28:16.597Z,101278.01
2018-03-22T08:30:44.739Z,101275.98
2018-03-22T08:33:12.863Z,101278.69
2018-03-22T08:35:41.006Z,101274.06
2018-03-22T08:38:09.139Z,101271.98
2018-03-22T08:40:37.275Z,101261.95
2018-03-22T08:43:05.447Z,101252.55
2018-03-22T08:45:33.572Z,101258.34
2018-03-22T08:48:01.779Z,101254.48
2018-03-22T08:50:29.901Z,101251.28
2018-03-22T08:52:58.044Z,101244.16
2018-03-22T08:55:26.239Z,101239.12
2018-03-22T08:57:54.407Z,101240.48
2018-03-22T09:00:22.541Z,101236.36
2018-03-22T09:02:50.696Z,101241.54
2018-03-22T09:05:18.844Z,101238.69
2018-03-22T09:07:46.967Z,101239.57
2018-03-22T09:10:15.138Z,101229.94
2018-03-22T09:12:43.276Z,101232.61
2018-03-22T09:15:11.430Z,101227.70
2018-03-22T09:17:39.603Z,101225.29
2018-03-22T09:20:07.739Z,101218.01
2018-03-22T09:22:35.936Z,101226.03
2018-03-22T09:25:04.061Z,101220.98
2018-03-22T09:27:32.216Z,101220.13
2018-03-22T09:30:00.359Z,101222.47
2018-03-22T09:32:28.512Z,101228.20
2018-03-22T09:34:56.669Z,101226.70
2018-03-22T09:37:24.809Z,101224.99
2018-03-22T09:39:52.929Z,101222.52
2018-03-22T09:42:21.074Z,101221.69
2018-03-22T09:44:49.211Z,101216.17
2018-03-22T09:47:17.388Z,101215.22
2018-03-22T09:49:45.539Z,101217.72
2018-03-22T09:52:13.663Z,101218.77
2018-03-22T09:54:41.812Z,101216.84
2018-03-22T09:57:09.975Z,101213.41
2018-03-22T09:59:38.094Z,101204.65
2018-03-22T10:02:06.246Z,101200.06
2018-03-22T10:04:34.379Z,101203.02
2018-03-22T10:07:02.506Z,101207.10
2018-03-22T10:09:30.627Z,101203.16
2018-03-22T10:11:58.769Z,101203.98
2018-03-22T10:14:26.917Z,101198.53
2018-03-22T10:16:55.068Z,101198.14
2018-03-22T10:19:23.216Z,101204.20
2018-03-22T10:21:51.356Z,101203.86
2018-03-22T10:24:19.498Z,101207.58
2018-03-22T10:26:47.636Z,101203.01
2018-03-22T10:29:15.791Z,101206.28
2018-03-22T10:31:43.913Z,101199.44
2018-03-22T10:34:12.078Z,101192.12
2018-03-22T10:36:40.203Z,101184.10
2018-03-22T10:39:08.367Z,101186.36
2018-03-22T10:41:36.636Z,101178.16
2018-03-22T10:44:08.200Z,101178.55
2018-03-22T10:46:37.240Z,101174.76
2018-03-22T10:49:05.422Z,101181.47
2018-03-22T10:51:33.570Z,101174.25
2018-03-22T10:54:01.702Z,101161.76
2018-03-22T10:56:29.847Z,101159.03
2018-03-22T10:58:57.965Z,101150.55
2018-03-22T11:01:35.166Z,101153.69
2018-03-22T11:04:08.280Z,101151.31
2018-03-22T11:06:36.418Z,101153.59
2018-03-22T11:09:05.321Z,101153.98
2018-03-22T11:11:33.483Z,101152.69
2018-03-22T11:14:01.628Z,101147.50
2018-03-22T11:16:29.780Z,101141.56
2018-03-22T11:18:57.961Z,101140.72
2018-03-22T11:21:26.077Z,101131.58
2018-03-22T11:23:54.230Z,101131.13
2018-03-22T11:26:26.127Z,101126.00
2018-03-22T11:28:54.258Z,101126.16
2018-03-22T11:31:22.404Z,101126.90
2018-03-22T11:33:50.594Z,101123.89
2018-03-22T11:36:18.720Z,101123.57
2018-03-22T11:38:46.875Z,101121.95
2018-03-22T11:41:15.037Z,101122.23
2018-03-22T11:43:43.184Z,101125.03
2018-03-22T11:46:11.359Z,101125.74
2018-03-22T11:48:39.503Z,101119.80
2018-03-22T11:51:07.657Z,101112.17
2018-03-22T11:53:35.934Z,101104.19
2018-03-22T11:56:04.092Z,101109.08
2018-03-22T11:58:32.246Z,101105.03
2018-03-22T12:01:00.398Z,101104.11
2018-03-22T12:03:28.582Z,101101.31
2018-03-22T12:05:56.761Z,101099.38
2018-03-22T12:08:24.892Z,101109.86
2018-03-22T12:10:53.446Z,101106.81
2018-03-22T12:13:21.650Z,101104.39
2018-03-22T12:15:49.781Z,101105.75
2018-03-22T12:18:17.917Z,101098.06
2018-03-22T12:20:46.066Z,101096.80
2018-03-22T12:23:14.237Z,101102.23
2018-03-22T12:25:42.409Z,101097.30
2018-03-22T12:28:10.577Z,101091.72
2018-03-22T12:30:38.772Z,101090.44
2018-03-22T12:33:06.934Z,101087.98
2018-03-22T12:35:35.095Z,101086.41
2018-03-22T12:38:03.239Z,101085.95
2018-03-22T12:40:31.392Z,101085.11
2018-03-22T12:42:59.550Z,101083.14
2018-03-22T12:45:27.683Z,101076.88
2018-03-22T12:47:55.851Z,101077.11
2018-03-22T12:50:23.982Z,101069.71
2018-03-22T12:52:52.130Z,101066.59
2018-03-22T12:55:20.272Z,101068.84
2018-03-22T12:57:48.414Z,101063.00
2018-03-22T13:00:16.567Z,101059.70
2018-03-22T13:02:44.808Z,101055.58
2018-03-22T13:05:12.978Z,101054.56
2018-03-22T13:07:41.106Z,101054.08
2018-03-22T13:10:09.236Z,101050.16
2018-03-22T13:12:37.417Z,101042.39
2018-03-22T13:15:08.497Z,101047.38
2018-03-22T13:17:36.656Z,101040.47
2018-03-22T13:20:04.815Z,101045.11
2018-03-22T13:22:32.966Z,101044.16
2018-03-22T13:25:01.130Z,101044.80
2018-03-22T13:27:29.384Z,101038.20
2018-03-22T13:29:57.571Z,101041.69
2018-03-22T13:32:25.675Z,101036.86
2018-03-22T13:34:53.833Z,101041.26
2018-03-22T13:37:21.972Z,101039.20
2018-03-22T13:39:50.215Z,101038.08
2018-03-22T13:42:18.345Z,101039.92
2018-03-22T13:44:46.508Z,101040.98
2018-03-22T13:47:14.633Z,101036.66
2018-03-22T13:49:42.785Z,101031.83
2018-03-22T13:52:10.956Z,101030.06
2018-03-22T13:54:39.129Z,101019.53
2018-03-22T13:57:07.299Z,101022.10
2018-03-22T13:59:35.468Z,101028.06
2018-03-22T14:02:03.599Z,101026.02
2018-03-22T14:04:31.772Z,101023.35
2018-03-22T14:06:59.950Z,101014.42
2018-03-22T14:09:28.090Z,101023.00
2018-03-22T14:11:56.208Z,101011.23
2018-03-22T14:14:27.781Z,101018.05
2018-03-22T14:16:55.929Z,101010.17
2018-03-22T14:19:24.189Z,101010.48
2018-03-22T14:21:52.310Z,101006.97
2018-03-22T14:24:20.515Z,101005.42
2018-03-22T14:26:48.680Z,101004.50
2018-03-22T14:29:16.824Z,100995.92
2018-03-22T14:31:44.992Z,101002.95
2018-03-22T14:34:13.154Z,101000.16
2018-03-22T14:36:41.305Z,100995.72
2018-03-22T14:39:09.432Z,100988.59
2018-03-22T14:41:37.589Z,100990.04
2018-03-22T14:44:05.717Z,100986.74
2018-03-22T14:46:33.878Z,100983.45
2018-03-22T14:49:02.023Z,100980.66
2018-03-22T14:51:30.185Z,100981.58
2018-03-22T14:53:58.364Z,100981.05
2018-03-22T14:56:26.514Z,100980.02
2018-03-22T14:58:54.662Z,100979.91
2018-03-22T15:01:22.805Z,100968.09
2018-03-22T15:03:50.974Z,100975.06
2018-03-22T15:06:19.191Z,100968.69
2018-03-22T15:08:47.274Z,100969.41
2018-03-22T15:11:15.396Z,100963.61
2018-03-22T15:13:43.558Z,100964.14
2018-03-22T15:16:11.716Z,100966.29
2018-03-22T15:18:39.865Z,100964.45
2018-03-22T15:21:08.008Z,100961.55
2018-03-22T15:23:36.137Z,100955.15
2018-03-22T15:26:04.312Z,100963.43
2018-03-22T15:28:32.471Z,100969.50
2018-03-22T15:31:00.677Z,100964.56
2018-03-22T15:33:28.833Z,100964.98
2018-03-22T15:35:56.963Z,100966.84
2018-03-22T15:38:25.139Z,100969.12
2018-03-22T15:40:53.831Z,100968.27
2018-03-22T15:43:22.089Z,100974.69
2018-03-22T15:45:50.247Z,100970.95
2018-03-22T15:48:18.393Z,100973.84
2018-03-22T15:50:46.538Z,100978.59
2018-03-22T15:53:14.696Z,100974.36
2018-03-22T15:55:42.842Z,100973.94
2018-03-22T15:58:11.019Z,100971.28
2018-03-22T16:00:39.149Z,100980.86
2018-03-22T16:03:07.377Z,100975.09
2018-03-22T16:05:35.570Z,100975.28
2018-03-22T16:08:03.738Z,100970.23
2018-03-22T16:10:31.878Z,100971.58
2018-03-22T16:13:00.011Z,100975.88
2018-03-22T16:15:28.158Z,100977.64
2018-03-22T16:17:56.284Z,100976.94
2018-03-22T16:20:24.407Z,100984.56
2018-03-22T16:22:52.557Z,100981.66
2018-03-22T16:25:20.971Z,100981.88
2018-03-22T16:27:49.094Z,100984.62
2018-03-22T16:30:17.233Z,100981.45
2018-03-22T16:32:45.376Z,100980.00
2018-03-22T16:35:13.524Z,100977.21
2018-03-22T16:37:41.674Z,100980.96
2018-03-22T16:40:09.820Z,100976.94
2018-03-22T16:42:39.856Z,100970.44
2018-03-22T16:45:08.044Z,100978.88
2018-03-22T16:47:36.290Z,100983.01
2018-03-22T16:50:04.420Z,100977.86
2018-03-22T16:52:32.575Z,100974.15
2018-03-22T16:55:00.734Z,100971.78
2018-03-22T16:57:28.887Z,100978.28
2018-03-22T16:59:57.066Z,100973.02
2018-03-22T17:02:25.322Z,100973.44
2018-03-22T17:04:57.062Z,100979.09
2018-03-22T17:07:25.227Z,100981.38
2018-03-22T17:09:53.371Z,100985.80
2018-03-22T17:12:21.508Z,100982.41
2018-03-22T17:14:49.778Z,100988.20
2018-03-22T17:17:17.924Z,100992.01
2018-03-22T17:19:46.063Z,100994.16
2018-03-22T17:22:14.187Z,100983.74
2018-03-22T17:24:42.335Z,100985.50
2018-03-22T17:27:10.482Z,100985.50
2018-03-22T17:29:38.622Z,100988.41
2018-03-22T17:32:06.879Z,100977.14
2018-03-22T17:34:35.000Z,100980.67
2018-03-22T17:37:03.160Z,100989.01
2018-03-22T17:39:31.323Z,100987.16
2018-03-22T17:41:59.458Z,100992.42
2018-03-22T17:44:27.597Z,100984.80
2018-03-22T17:46:55.726Z,100985.92
2018-03-22T17:49:23.874Z,100988.01
2018-03-22T17:51:51.996Z,100990.16
2018-03-22T17:54:20.161Z,100985.82
2018-03-22T17:56:48.299Z,100978.41
2018-03-22T17:59:16.459Z,100978.62
2018-03-22T18:01:44.581Z,100974.59
2018-03-22T18:04:12.715Z,100985.11
2018-03-22T18:06:40.849Z,100977.67
2018-03-22T18:09:08.992Z,100981.27
2018-03-22T18:11:37.138Z,100979.54
2018-03-22T18:14:05.336Z,100978.59
2018-03-22T18:16:33.573Z,100981.59
2018-03-22T18:19:01.707Z,100983.44
2018-03-22T18:21:29.870Z,100988.41
2018-03-22T18:23:57.992Z,100983.05
2018-03-22T18:26:26.146Z,100991.69
2018-03-22T18:28:54.276Z,100990.45
2018-03-22T18:31:22.443Z,100992.50
2018-03-22T18:33:50.588Z,100996.73
2018-03-22T18:36:18.745Z,100993.03
2018-03-22T18:38:46.881Z,100996.64
2018-03-22T18:41:15.025Z,100992.33
2018-03-22T18:43:43.168Z,100994.48
2018-03-22T18:46:11.322Z,100990.35
2018-03-22T18:48:39.477Z,100991.66
2018-03-22T18:51:07.598Z,100987.24
2018-03-22T18:53:35.747Z,100992.71
2018-03-22T18:56:03.858Z,100986.01
2018-03-22T18:58:32.011Z,100990.03
2018-03-22T19:01:00.168Z,100984.45
2018-03-22T19:03:28.310Z,100980.53
2018-03-22T19:05:56.458Z,100985.46
2018-03-22T19:08:24.570Z,100982.73
2018-03-22T19:10:52.764Z,100983.49
2018-03-22T19:13:20.962Z,100988.43
2018-03-22T19:15:49.129Z,100996.14
2018-03-22T19:18:17.269Z,100991.65
2018-03-22T19:20:45.421Z,100987.02
2018-03-22T19:23:13.548Z,100988.73
2018-03-22T19:25:42.776Z,100989.06
2018-03-22T19:28:10.919Z,100988.22
2018-03-22T19:30:39.072Z,100985.63
2018-03-22T19:33:07.224Z,100988.00
2018-03-22T19:35:35.391Z,100986.36
2018-03-22T19:38:03.530Z,100986.16
2018-03-22T19:40:31.709Z,100982.94
2018-03-22T19:42:59.846Z,100985.81
2018-03-22T19:45:27.993Z,100986.11
2018-03-22T19:47:56.136Z,100983.74
2018-03-22T19:50:24.277Z,100980.79
2018-03-22T19:52:52.413Z,100972.13
2018-03-22T19:55:20.570Z,100974.16
2018-03-22T19:57:48.694Z,100979.84
2018-03-22T20:00:16.899Z,100976.95
2018-03-22T20:02:45.013Z,100975.00
2018-03-22T20:05:13.185Z,100977.80
2018-03-22T20:07:44.277Z,100978.44
2018-03-22T20:10:12.426Z,100977.69
2018-03-22T20:12:40.557Z,100976.66
2018-03-22T20:15:08.723Z,100977.78
2018-03-22T20:17:36.863Z,100976.92
2018-03-22T20:20:05.007Z,100977.16
2018-03-22T20:22:33.177Z,100975.10
2018-03-22T20:25:01.298Z,100972.16
2018-03-22T20:27:29.444Z,100972.92
2018-03-22T20:29:57.722Z,100974.26
2018-03-22T20:32:25.860Z,100973.92
2018-03-22T20:34:54.157Z,100968.55
2018-03-22T20:37:22.331Z,100967.01
2018-03-22T20:39:50.465Z,100966.80
2018-03-22T20:42:18.599Z,100958.28
2018-03-22T20:44:46.754Z,100969.33
2018-03-22T20:47:14.886Z,100962.72
2018-03-22T20:49:43.062Z,100962.30
2018-03-22T20:52:11.206Z,100964.88
2018-03-22T20:54:39.355Z,100962.77
2018-03-22T20:57:07.486Z,100966.42
2018-03-22T20:59:35.664Z,100961.70
2018-03-22T21:02:03.821Z,100966.95
2018-03-22T21:04:31.966Z,100961.17
2018-03-22T21:07:00.135Z,100964.98
2018-03-22T21:09:28.313Z,100966.97
2018-03-22T21:11:56.554Z,100970.06
2018-03-22T21:14:24.764Z,100969.63
2018-03-22T21:16:52.902Z,100968.55
2018-03-22T21:19:21.072Z,100972.94
2018-03-22T21:21:49.191Z,100966.52
2018-03-22T21:24:17.348Z,100966.68
2018-03-22T21:26:45.482Z,100967.74
2018-03-22T21:29:13.817Z,100966.30
2018-03-22T21:31:42.763Z,100965.39
2018-03-22T21:34:10.944Z,100962.49
2018-03-22T21:36:39.150Z,100962.60
2018-03-22T21:39:07.313Z,100970.12
2018-03-22T21:41:35.450Z,100967.08
2018-03-22T21:44:15.295Z,100961.11
2018-03-22T21:46:43.509Z,100958.64
2018-03-22T21:49:11.703Z,100958.36
2018-03-22T21:51:40.554Z,100959.28
2018-03-22T21:54:08.691Z,100955.52
2018-03-22T21:56:36.864Z,100952.84
2018-03-22T21:59:05.015Z,100952.04
2018-03-22T22:01:33.281Z,100951.97
2018-03-22T22:04:01.459Z,100957.81
2018-03-22T22:06:29.621Z,100949.69
2018-03-22T22:08:57.864Z,100950.12
2018-03-22T22:11:25.999Z,100942.58
2018-03-22T22:13:54.145Z,100939.70
2018-03-22T22:16:22.289Z,100943.42
2018-03-22T22:18:50.563Z,100940.28
2018-03-22T22:21:18.703Z,100941.25
2018-03-22T22:23:46.870Z,100943.50
2018-03-22T22:26:15.829Z,100939.91
2018-03-22T22:28:43.957Z,100929.54
2018-03-22T22:31:12.110Z,100927.09
2018-03-22T22:33:40.267Z,100922.53
2018-03-22T22:36:08.535Z,100920.10
2018-03-22T22:38:36.656Z,100918.97
2018-03-22T22:41:04.811Z,100920.09
2018-03-22T22:43:32.942Z,100919.38
2018-03-22T22:46:01.090Z,100912.63
2018-03-22T22:48:29.263Z,100912.11
2018-03-22T22:50:57.439Z,100914.39
2018-03-22T22:53:25.582Z,100906.45
2018-03-22T22:55:53.826Z,100905.70
2018-03-22T22:58:21.996Z,100893.06
2018-03-22T23:00:50.305Z,100894.11
2018-03-22T23:03:18.431Z,100886.39
2018-03-22T23:05:46.559Z,100886.50
2018-03-22T23:08:14.889Z,100881.16
2018-03-22T23:10:43.072Z,100876.57
2018-03-22T23:13:11.205Z,100879.34
2018-03-22T23:15:39.352Z,100881.33
2018-03-22T23:18:07.476Z,100873.63
2018-03-22T23:20:35.773Z,100876.42
2018-03-22T23:23:03.981Z,100871.59
2018-03-22T23:25:32.129Z,100870.37
2018-03-22T23:28:00.315Z,100872.41
2018-03-22T23:30:28.475Z,100872.19
2018-03-22T23:32:56.667Z,100869.29
2018-03-22T23:35:24.774Z,100859.86
2018-03-22T23:37:52.912Z,100861.70
2018-03-22T23:40:21.084Z,100850.47
2018-03-22T23:42:49.213Z,100861.53
2018-03-22T23:45:17.363Z,100856.11
2018-03-22T23:47:45.489Z,100855.59
2018-03-22T23:50:14.281Z,100851.99
2018-03-22T23:52:42.416Z,100850.02
2018-03-22T23:55:10.547Z,100845.90
2018-03-22T23:57:38.690Z,100842.62
